Terminal Aerodrome Forecast
Issued by NWS

Home | Current Version | Previous Version | Text Only | Print | Product List | Glossary On
Versions: 1 2 3 4 5 6 7 8 9 10 11 12 13 14 15 16
971
FTUS46 KPDT 162335
TAFDLS
TAF
KDLS 162335Z 1700/1724 VRB03KT P6SM SCT025
     FM170200 10003KT 6SM BR OVC020
     FM170900 VRB03KT 5SM -SGPL BR BKN015 OVC060
     FM171500 VRB03KT 5SM -FZRAPL BKN020
     FM171800 VRB03KT 6SM HZ VCSH SCT020 BKN050=

USA.gov is the U.S. government's official web portal to all federal, state and local government web resources and services.